createdAt,value
2022-11-04T00:00:29.999Z,17.95
2022-11-04T00:02:58.525Z,18.05
2022-11-04T00:05:27.872Z,20.17
2022-11-04T00:08:13.064Z,17.30
2022-11-04T00:10:58.369Z,16.38
2022-11-04T00:13:26.466Z,19.50
2022-11-04T00:16:11.885Z,16.95
2022-11-04T00:18:39.895Z,16.65
2022-11-04T00:21:26.981Z,16.98
2022-11-04T00:24:12.213Z,20.27
2022-11-04T00:26:57.452Z,17.42
2022-11-04T00:29:25.596Z,17.13
2022-11-04T00:32:10.896Z,17.00
2022-11-04T00:34:38.979Z,18.30
2022-11-04T00:37:08.345Z,17.63
2022-11-04T00:39:36.379Z,15.77
2022-11-04T00:42:04.570Z,18.40
2022-11-04T00:44:32.635Z,20.25
2022-11-04T00:47:00.634Z,17.33
2022-11-04T00:49:28.676Z,18.13
2022-11-04T00:51:56.696Z,16.77
2022-11-04T00:54:26.089Z,16.75
2022-11-04T00:56:55.121Z,19.40
2022-11-04T00:59:23.101Z,17.73
2022-11-04T01:01:51.258Z,18.48
2022-11-04T01:04:19.347Z,19.42
2022-11-04T01:06:47.703Z,20.60
2022-11-04T01:09:15.719Z,19.60
2022-11-04T01:11:45.047Z,20.67
2022-11-04T01:14:13.592Z,19.10
2022-11-04T01:16:41.902Z,22.73
2022-11-04T01:19:10.572Z,21.73
2022-11-04T01:21:38.612Z,21.30
2022-11-04T01:24:07.445Z,20.27
2022-11-04T01:26:35.544Z,18.52
2022-11-04T01:29:04.996Z,17.63
2022-11-04T01:31:33.425Z,17.38
2022-11-04T01:34:01.433Z,17.63
2022-11-04T01:36:29.664Z,17.80
2022-11-04T01:38:58.129Z,16.00
2022-11-04T01:41:28.413Z,15.38
2022-11-04T01:43:57.990Z,14.27
2022-11-04T01:46:44.341Z,13.73
2022-11-04T01:49:25.230Z,14.75
2022-11-04T01:52:00.562Z,12.85
2022-11-04T01:54:30.115Z,11.77
2022-11-04T01:56:59.047Z,14.18
2022-11-04T01:59:31.404Z,13.20
2022-11-04T02:02:00.869Z,12.20
2022-11-04T02:04:30.189Z,12.73
2022-11-04T02:07:00.973Z,12.52
2022-11-04T02:09:31.317Z,13.00
2022-11-04T02:12:17.016Z,13.35
2022-11-04T02:14:47.788Z,10.95
2022-11-04T02:17:33.244Z,12.88
2022-11-04T02:20:19.148Z,11.00
2022-11-04T02:23:22.679Z,10.73
2022-11-04T02:26:20.004Z,8.93
2022-11-04T02:29:09.007Z,8.10
2022-11-04T02:31:46.136Z,7.05
2022-11-04T02:34:22.934Z,6.28
2022-11-04T02:36:59.843Z,8.18
2022-11-04T02:39:37.716Z,7.47
2022-11-04T02:42:13.906Z,6.80
2022-11-04T02:44:49.305Z,4.97
2022-11-04T02:47:22.221Z,4.90
2022-11-04T02:49:56.380Z,5.05
2022-11-04T02:52:31.030Z,4.10
2022-11-04T02:55:04.096Z,5.03
2022-11-04T02:57:36.296Z,5.93
2022-11-04T03:00:07.852Z,5.50
2022-11-04T03:02:39.057Z,2.35
2022-11-04T03:05:10.415Z,5.50
2022-11-04T03:07:42.959Z,2.10
2022-11-04T03:10:16.964Z,3.38
2022-11-04T03:12:49.668Z,3.45
2022-11-04T03:15:24.850Z,4.10
2022-11-04T03:17:59.365Z,2.08
2022-11-04T03:20:29.890Z,6.03
2022-11-04T03:23:00.214Z,2.75
2022-11-04T03:25:33.433Z,3.83
2022-11-04T03:28:07.526Z,7.72
2022-11-04T03:30:43.423Z,4.00
2022-11-04T03:33:19.761Z,3.97
2022-11-04T03:35:47.993Z,4.72
2022-11-04T03:38:16.053Z,4.63
2022-11-04T03:40:44.123Z,7.78
2022-11-04T03:43:15.872Z,6.55
2022-11-04T03:45:45.389Z,7.47
2022-11-04T03:48:14.051Z,3.70
2022-11-04T03:50:44.064Z,5.55
2022-11-04T03:53:14.463Z,5.68
2022-11-04T03:55:52.338Z,3.47
2022-11-04T03:58:31.527Z,6.05
2022-11-04T04:01:09.350Z,2.40
2022-11-04T04:03:43.529Z,2.85
2022-11-04T04:06:17.928Z,1.63
2022-11-04T04:08:49.786Z,5.90
2022-11-04T04:11:20.990Z,2.22
2022-11-04T04:13:55.614Z,4.40
2022-11-04T04:16:31.496Z,5.38
2022-11-04T04:19:02.522Z,2.05
2022-11-04T04:21:33.324Z,3.38
2022-11-04T04:24:21.605Z,1.75
2022-11-04T04:27:08.434Z,3.97
2022-11-04T04:29:37.884Z,2.33
2022-11-04T04:32:08.296Z,4.40
2022-11-04T04:34:36.577Z,4.28
2022-11-04T04:37:07.672Z,2.75
2022-11-04T04:39:58.298Z,4.10
2022-11-04T04:42:44.096Z,2.78
2022-11-04T04:45:20.541Z,1.48
2022-11-04T04:47:50.056Z,3.30
2022-11-04T04:50:20.302Z,3.03
2022-11-04T04:52:50.789Z,5.00
2022-11-04T04:55:19.384Z,8.00
2022-11-04T04:57:47.428Z,9.15
2022-11-04T05:00:17.740Z,6.22
2022-11-04T05:02:46.225Z,3.20
2022-11-04T05:07:48.872Z,2.38
2022-11-04T05:10:18.333Z,3.95
2022-11-04T05:13:03.764Z,1.48
2022-11-04T05:15:32.223Z,2.83
2022-11-04T05:18:02.313Z,4.03
2022-11-04T05:20:34.298Z,2.33
2022-11-04T05:23:02.542Z,2.10
2022-11-04T05:25:30.665Z,1.50
2022-11-04T05:28:01.104Z,3.40
2022-11-04T05:30:29.194Z,2.63
2022-11-04T05:33:00.022Z,6.68
2022-11-04T05:35:33.245Z,3.45
2022-11-04T05:38:01.339Z,3.78
2022-11-04T05:40:29.345Z,5.03
2022-11-04T05:42:59.749Z,4.00
2022-11-04T05:45:28.106Z,5.20
2022-11-04T05:48:00.169Z,1.10
2022-11-04T05:50:28.926Z,4.35
2022-11-04T05:52:59.899Z,2.63
2022-11-04T05:55:28.371Z,2.53
2022-11-04T05:57:58.010Z,3.78
2022-11-04T06:00:27.072Z,2.78
2022-11-04T06:02:57.267Z,3.83
2022-11-04T06:05:25.586Z,3.40
2022-11-04T06:07:53.636Z,4.10
2022-11-04T06:10:23.432Z,1.63
2022-11-04T06:12:51.584Z,2.90
2022-11-04T06:15:19.597Z,3.53
2022-11-04T06:17:47.685Z,7.07
2022-11-04T06:20:16.556Z,3.90
2022-11-04T06:22:44.605Z,5.05
2022-11-04T06:25:12.961Z,3.10
2022-11-04T06:27:42.408Z,3.28
2022-11-04T06:30:12.857Z,8.95
2022-11-04T06:32:40.914Z,4.10
2022-11-04T06:35:09.951Z,4.32
2022-11-04T06:37:38.263Z,6.00
2022-11-04T06:40:07.568Z,5.30
2022-11-04T06:42:35.616Z,2.28
2022-11-04T06:45:05.702Z,4.18
2022-11-04T06:47:33.748Z,2.60
2022-11-04T06:50:01.977Z,5.28
2022-11-04T06:52:29.998Z,5.07
2022-11-04T06:54:58.078Z,9.55
2022-11-04T06:57:26.052Z,6.43
2022-11-04T06:59:54.078Z,7.13
2022-11-04T07:02:23.662Z,2.67
2022-11-04T07:04:52.124Z,6.60
2022-11-04T07:07:20.162Z,4.45
2022-11-04T07:09:48.360Z,7.80
2022-11-04T07:12:16.670Z,7.63
2022-11-04T07:14:44.671Z,3.03
2022-11-04T07:17:13.136Z,7.22
2022-11-04T07:19:42.594Z,8.20
2022-11-04T07:22:10.701Z,4.50
2022-11-04T07:24:38.728Z,5.88
2022-11-04T07:27:07.766Z,5.30
2022-11-04T07:29:35.801Z,8.57
2022-11-04T07:32:04.076Z,6.97
2022-11-04T07:34:32.110Z,9.88
2022-11-04T07:37:01.461Z,7.63
2022-11-04T07:39:29.553Z,6.78
2022-11-04T07:41:59.572Z,5.82
2022-11-04T07:44:28.047Z,7.97
2022-11-04T07:46:56.435Z,7.18
2022-11-04T07:49:25.379Z,4.88
2022-11-04T07:51:53.541Z,4.45
2022-11-04T07:54:22.917Z,6.35
2022-11-04T07:56:50.965Z,12.35
2022-11-04T07:59:18.965Z,7.95
2022-11-04T08:01:47.019Z,6.80
2022-11-04T08:04:15.034Z,5.82
2022-11-04T08:06:43.084Z,7.22
2022-11-04T08:09:11.088Z,11.07
2022-11-04T08:11:40.495Z,8.38
2022-11-04T08:14:08.529Z,2.78
2022-11-04T08:16:36.595Z,4.38
2022-11-04T08:19:04.692Z,3.00
2022-11-04T08:21:34.195Z,5.32
2022-11-04T08:24:03.905Z,5.88
2022-11-04T08:26:31.947Z,6.75
2022-11-04T08:29:02.552Z,5.38
2022-11-04T08:31:33.767Z,6.20
2022-11-04T08:34:02.814Z,7.63
2022-11-04T08:36:34.420Z,5.97
2022-11-04T08:39:09.988Z,3.50
2022-11-04T08:41:41.133Z,3.17
2022-11-04T08:44:11.678Z,2.83
2022-11-04T08:46:41.081Z,6.32
2022-11-04T08:49:11.378Z,5.20
2022-11-04T08:51:44.797Z,4.25
2022-11-04T08:54:12.847Z,6.57
2022-11-04T08:56:41.637Z,5.53
2022-11-04T08:59:12.585Z,5.75
2022-11-04T09:01:40.790Z,2.92
2022-11-04T09:04:09.206Z,5.07
2022-11-04T09:06:39.725Z,5.85
2022-11-04T09:09:09.815Z,4.00
2022-11-04T09:11:39.520Z,9.80
2022-11-04T09:14:08.152Z,9.80
2022-11-04T09:16:38.869Z,6.57
2022-11-04T09:19:07.252Z,5.10
2022-11-04T09:21:35.300Z,5.50
2022-11-04T09:24:03.331Z,8.20
2022-11-04T09:26:31.981Z,4.65
2022-11-04T09:29:01.157Z,6.63
2022-11-04T09:31:31.202Z,5.95
2022-11-04T09:34:00.554Z,7.15
2022-11-04T09:36:29.174Z,4.47
2022-11-04T09:38:57.175Z,10.00
2022-11-04T09:41:43.946Z,6.50
2022-11-04T09:44:21.899Z,6.13
2022-11-04T09:46:51.592Z,5.38
2022-11-04T09:49:22.367Z,3.75
2022-11-04T09:51:54.847Z,7.43
2022-11-04T09:54:25.721Z,7.65
2022-11-04T09:56:55.723Z,8.77
2022-11-04T09:59:28.749Z,7.65
2022-11-04T10:02:26.170Z,7.63
2022-11-04T10:05:06.045Z,6.47
2022-11-04T10:07:49.995Z,4.97
2022-11-04T10:10:24.304Z,8.57
2022-11-04T10:13:12.534Z,8.05
2022-11-04T10:15:55.245Z,4.47
2022-11-04T10:18:43.595Z,6.10
2022-11-04T10:21:24.792Z,6.57
2022-11-04T10:24:06.628Z,4.85
2022-11-04T10:26:42.160Z,8.32
2022-11-04T10:29:16.176Z,7.15
2022-11-04T10:31:46.263Z,7.50
2022-11-04T10:34:24.682Z,6.63
2022-11-04T10:36:54.501Z,4.57
2022-11-04T10:39:29.044Z,5.78
2022-11-04T10:41:58.245Z,4.78
2022-11-04T10:44:31.291Z,5.95
2022-11-04T10:47:11.654Z,4.82
2022-11-04T10:52:52.795Z,6.90
2022-11-04T10:55:38.089Z,5.97
2022-11-04T10:58:16.139Z,3.20
2022-11-04T11:00:45.275Z,4.13
2022-11-04T11:03:32.512Z,5.55
2022-11-04T11:06:17.831Z,5.53
2022-11-04T11:08:47.677Z,6.68
2022-11-04T11:11:16.663Z,5.80
2022-11-04T11:13:46.471Z,5.22
2022-11-04T11:16:19.518Z,7.40
2022-11-04T11:19:15.873Z,7.18
2022-11-04T11:21:45.732Z,6.90
2022-11-04T11:24:20.031Z,8.38
2022-11-04T11:26:49.879Z,8.85
2022-11-04T11:29:22.956Z,5.93
2022-11-04T11:31:53.089Z,4.15
2022-11-04T11:34:26.485Z,7.10
2022-11-04T11:36:56.340Z,5.38
2022-11-04T11:39:28.132Z,4.88
2022-11-04T11:42:00.387Z,6.13
2022-11-04T11:44:33.084Z,4.40
2022-11-04T11:47:03.723Z,8.82
2022-11-04T11:49:34.474Z,5.82
2022-11-04T11:52:26.938Z,5.25
2022-11-04T11:55:04.368Z,8.63
2022-11-04T11:57:43.189Z,7.43
2022-11-04T12:03:13.280Z,7.45
2022-11-04T12:11:54.875Z,7.93
2022-11-04T12:14:32.097Z,5.28
2022-11-04T12:17:08.473Z,4.70
2022-11-04T12:19:53.180Z,5.03
2022-11-04T12:22:30.425Z,5.55
2022-11-04T12:25:10.429Z,4.38
2022-11-04T12:27:50.634Z,2.65
2022-11-04T12:30:29.810Z,4.50
2022-11-04T12:33:17.989Z,3.88
2022-11-04T12:36:01.015Z,7.40
2022-11-04T12:38:52.339Z,5.18
2022-11-04T12:41:52.321Z,6.70
2022-11-04T12:44:29.829Z,6.93
2022-11-04T12:47:07.230Z,7.30
2022-11-04T12:49:50.099Z,4.32
2022-11-04T12:52:33.613Z,9.90
2022-11-04T12:55:18.656Z,4.93
2022-11-04T12:57:56.367Z,4.95
2022-11-04T13:00:28.336Z,6.90
2022-11-04T13:03:02.835Z,9.60
2022-11-04T13:05:43.736Z,8.57
2022-11-04T13:08:20.038Z,5.97
2022-11-04T13:10:54.252Z,10.75
2022-11-04T13:13:27.710Z,6.53
2022-11-04T13:16:00.574Z,7.53
2022-11-04T13:18:36.487Z,5.32
2022-11-04T13:21:08.842Z,4.85
2022-11-04T13:23:42.432Z,11.10
2022-11-04T13:26:14.573Z,8.15
2022-11-04T13:28:43.864Z,10.30
2022-11-04T13:31:21.516Z,9.73
2022-11-04T13:33:55.795Z,9.23
2022-11-04T13:36:33.770Z,8.02
2022-11-04T13:39:07.504Z,10.68
2022-11-04T13:42:05.159Z,7.93
2022-11-04T13:44:38.695Z,9.75
2022-11-04T13:47:22.200Z,10.45
2022-11-04T13:49:52.238Z,15.68
2022-11-04T13:52:20.687Z,11.45
2022-11-04T13:54:55.187Z,11.43
2022-11-04T13:57:25.852Z,10.70
2022-11-04T14:00:22.495Z,10.80
2022-11-04T14:02:53.154Z,10.18
2022-11-04T14:05:48.524Z,11.15
2022-11-04T14:08:17.981Z,11.65
2022-11-04T14:10:59.503Z,12.45
2022-11-04T14:13:47.804Z,8.10
2022-11-04T14:16:41.297Z,7.60
2022-11-04T14:19:57.757Z,8.13
2022-11-04T14:22:35.303Z,11.02
2022-11-04T14:25:19.150Z,10.48
2022-11-04T14:27:48.900Z,8.93
2022-11-04T14:30:36.965Z,14.10
2022-11-04T14:33:08.285Z,8.73
2022-11-04T14:35:37.321Z,5.07
2022-11-04T14:38:25.582Z,10.73
2022-11-04T14:41:13.733Z,8.10
2022-11-04T14:43:44.470Z,8.60
2022-11-04T14:46:18.964Z,5.32
2022-11-04T14:48:52.197Z,8.90
2022-11-04T14:51:27.715Z,8.25
2022-11-04T14:54:04.668Z,7.90
2022-11-04T14:56:32.704Z,9.07
2022-11-04T14:59:03.292Z,6.80
2022-11-04T15:01:35.446Z,6.80
2022-11-04T15:04:12.153Z,10.15
2022-11-04T15:06:54.320Z,6.47
2022-11-04T15:09:26.482Z,8.93
2022-11-04T15:12:20.617Z,15.80
2022-11-04T15:14:48.798Z,6.72
2022-11-04T15:17:20.495Z,9.88
2022-11-04T15:19:51.647Z,7.95
2022-11-04T15:22:20.744Z,10.05
2022-11-04T15:24:51.596Z,10.02
2022-11-04T15:27:25.507Z,10.75
2022-11-04T15:29:58.591Z,13.93
2022-11-04T15:32:27.303Z,16.08
2022-11-04T15:34:56.664Z,11.02
2022-11-04T15:37:26.595Z,11.55
2022-11-04T15:39:58.859Z,12.32
2022-11-04T15:42:42.976Z,9.73
2022-11-04T15:45:30.254Z,12.70
2022-11-04T15:48:26.989Z,9.63
2022-11-04T15:51:14.267Z,10.77
2022-11-04T15:54:00.872Z,11.45
2022-11-04T15:56:43.005Z,9.23
2022-11-04T15:59:24.644Z,10.00
2022-11-04T16:02:00.383Z,14.50
2022-11-04T16:04:31.249Z,15.00
2022-11-04T16:07:26.250Z,16.50
2022-11-04T16:10:01.154Z,18.45
2022-11-04T16:12:40.290Z,16.77
2022-11-04T16:15:55.365Z,12.70
2022-11-04T16:18:37.462Z,12.05
2022-11-04T16:21:11.087Z,8.30
2022-11-04T16:23:46.734Z,9.07
2022-11-04T16:26:24.916Z,15.43
2022-11-04T16:29:05.024Z,19.67
2022-11-04T16:31:35.902Z,16.67
2022-11-04T16:34:05.064Z,15.13
2022-11-04T16:36:35.897Z,15.75
2022-11-04T16:39:08.504Z,14.75
2022-11-04T16:41:38.541Z,19.10
2022-11-04T16:44:19.990Z,20.13
2022-11-04T16:46:48.043Z,14.63
2022-11-04T16:49:18.348Z,16.83
2022-11-04T16:51:47.013Z,9.60
2022-11-04T16:54:15.049Z,10.32
2022-11-04T16:56:43.181Z,13.32
2022-11-04T16:59:13.604Z,14.43
2022-11-04T17:01:41.863Z,11.13
2022-11-04T17:04:10.769Z,12.07
2022-11-04T17:06:39.679Z,14.85
2022-11-04T17:09:18.284Z,15.20
2022-11-04T17:11:46.277Z,15.35
2022-11-04T17:14:16.472Z,17.10
2022-11-04T17:16:44.587Z,15.52
2022-11-04T17:19:17.379Z,19.10
2022-11-04T17:21:46.338Z,14.50
2022-11-04T17:24:14.481Z,16.90
2022-11-04T17:26:42.529Z,20.45
2022-11-04T17:29:16.918Z,18.13
2022-11-04T17:31:46.800Z,18.88
2022-11-04T17:34:14.926Z,27.02
2022-11-04T17:36:42.933Z,24.13
2022-11-04T17:39:10.968Z,21.70
2022-11-04T17:41:56.357Z,24.90
2022-11-04T17:44:24.415Z,25.55
2022-11-04T17:46:53.792Z,33.20
2022-11-04T17:49:23.469Z,34.53
2022-11-04T17:51:53.728Z,26.35
2022-11-04T17:54:22.695Z,30.75
2022-11-04T17:56:50.873Z,25.20
2022-11-04T17:59:20.433Z,24.15
2022-11-04T18:01:48.871Z,25.15
2022-11-04T18:04:20.596Z,21.67
2022-11-04T18:06:48.917Z,24.27
2022-11-04T18:09:17.410Z,34.20
2022-11-04T18:12:03.600Z,32.50
2022-11-04T18:14:32.334Z,32.85
2022-11-04T18:17:00.533Z,33.20
2022-11-04T18:19:30.281Z,29.38
2022-11-04T18:21:58.290Z,32.30
2022-11-04T18:24:26.318Z,33.30
2022-11-04T18:26:54.484Z,31.48
2022-11-04T18:29:23.038Z,31.05
2022-11-04T18:31:51.089Z,24.05
2022-11-04T18:34:20.068Z,29.15
2022-11-04T18:36:50.107Z,34.63
2022-11-04T18:39:19.558Z,40.95
2022-11-04T18:41:47.939Z,37.63
2022-11-04T18:44:17.967Z,46.38
2022-11-04T18:46:46.088Z,47.08
2022-11-04T18:49:14.553Z,39.38
2022-11-04T18:51:43.189Z,25.77
2022-11-04T18:54:13.323Z,33.60
2022-11-04T18:56:41.377Z,29.27
2022-11-04T18:59:10.708Z,24.55
2022-11-04T19:01:39.046Z,19.25
2022-11-04T19:04:07.262Z,22.02
2022-11-04T19:06:38.620Z,21.98
2022-11-04T19:09:32.430Z,23.60
2022-11-04T19:12:12.776Z,19.85
2022-11-04T19:14:41.040Z,19.15
2022-11-04T19:17:09.389Z,27.25
2022-11-04T19:19:37.382Z,22.55
2022-11-04T19:22:05.388Z,19.48
2022-11-04T19:24:33.505Z,20.00
2022-11-04T19:27:04.450Z,24.27
2022-11-04T19:29:32.981Z,23.60
2022-11-04T19:32:01.094Z,19.63
2022-11-04T19:34:29.170Z,24.00
2022-11-04T19:36:57.240Z,25.20
2022-11-04T19:39:25.309Z,22.08
2022-11-04T19:42:10.824Z,26.77
2022-11-04T19:44:40.308Z,19.48
2022-11-04T19:47:09.073Z,22.58
2022-11-04T19:49:37.062Z,22.00
2022-11-04T19:52:05.441Z,27.48
2022-11-04T19:54:33.604Z,27.55
2022-11-04T19:57:01.628Z,24.75
2022-11-04T19:59:29.644Z,25.67
2022-11-04T20:01:59.081Z,32.25
2022-11-04T20:04:27.137Z,28.92
2022-11-04T20:06:55.111Z,33.20
2022-11-04T20:09:23.613Z,21.48
2022-11-04T20:12:11.933Z,25.05
2022-11-04T20:14:43.047Z,22.25
2022-11-04T20:17:12.450Z,21.90
2022-11-04T20:19:40.666Z,23.73
2022-11-04T20:22:08.653Z,17.25
2022-11-04T20:24:36.927Z,21.90
2022-11-04T20:27:05.245Z,24.58
2022-11-04T20:29:35.440Z,24.17
2022-11-04T20:32:05.818Z,19.73
2022-11-04T20:34:35.982Z,19.95
2022-11-04T20:37:04.088Z,25.58
2022-11-04T20:39:32.489Z,23.20
2022-11-04T20:42:00.492Z,23.90
2022-11-04T20:44:28.527Z,23.63
2022-11-04T20:47:01.079Z,27.33
2022-11-04T20:49:29.889Z,19.95
2022-11-04T20:51:59.216Z,23.15
2022-11-04T20:54:27.363Z,17.63
2022-11-04T20:56:55.520Z,21.38
2022-11-04T20:59:23.513Z,18.63
2022-11-04T21:01:53.076Z,25.60
2022-11-04T21:04:22.127Z,17.55
2022-11-04T21:06:51.671Z,18.27
2022-11-04T21:09:22.349Z,18.35
2022-11-04T21:11:51.393Z,20.83
2022-11-04T21:14:20.331Z,20.08
2022-11-04T21:16:48.916Z,22.65
2022-11-04T21:19:17.347Z,23.15
2022-11-04T21:21:47.026Z,20.23
2022-11-04T21:24:19.599Z,20.25
2022-11-04T21:26:49.301Z,25.42
2022-11-04T21:29:19.671Z,19.33
2022-11-04T21:31:48.898Z,18.75
2022-11-04T21:34:17.116Z,23.02
2022-11-04T21:36:45.697Z,18.30
2022-11-04T21:39:14.441Z,18.90
2022-11-04T21:41:42.492Z,28.30
2022-11-04T21:44:14.348Z,25.13
2022-11-04T21:46:42.495Z,24.55
2022-11-04T21:49:13.414Z,24.75
2022-11-04T21:51:41.451Z,26.13
2022-11-04T21:54:09.504Z,23.83
2022-11-04T21:56:37.579Z,20.55
2022-11-04T21:59:06.624Z,23.13
2022-11-04T22:01:36.086Z,22.30
2022-11-04T22:04:04.817Z,22.55
2022-11-04T22:06:35.481Z,23.77
2022-11-04T22:09:05.332Z,28.85
2022-11-04T22:11:36.439Z,25.83
2022-11-04T22:14:07.461Z,30.58
2022-11-04T22:16:38.708Z,22.45
2022-11-04T22:19:08.940Z,23.15
2022-11-04T22:21:39.947Z,24.30
2022-11-04T22:24:11.110Z,27.27
2022-11-04T22:26:39.687Z,26.92
2022-11-04T22:29:07.912Z,21.30
2022-11-04T22:31:38.753Z,19.23
2022-11-04T22:34:07.221Z,25.65
2022-11-04T22:36:35.578Z,22.48
2022-11-04T22:39:05.477Z,28.50
2022-11-04T22:41:34.499Z,28.75
2022-11-04T22:44:03.292Z,23.25
2022-11-04T22:46:33.484Z,24.25
2022-11-04T22:49:02.885Z,24.38
2022-11-04T22:51:31.663Z,19.67
2022-11-04T22:54:06.560Z,20.88
2022-11-04T22:56:35.865Z,22.52
2022-11-04T22:59:04.097Z,22.02
2022-11-04T23:01:33.857Z,22.58
2022-11-04T23:04:03.674Z,21.92
2022-11-04T23:06:31.698Z,22.20
2022-11-04T23:09:01.062Z,24.77
2022-11-04T23:11:47.902Z,21.30
2022-11-04T23:14:35.876Z,24.77
2022-11-04T23:17:29.361Z,19.58
2022-11-04T23:19:58.809Z,22.75
2022-11-04T23:22:44.257Z,24.27
2022-11-04T23:25:13.532Z,23.60
2022-11-04T23:28:03.775Z,27.88
2022-11-04T23:30:34.670Z,22.67
2022-11-04T23:33:04.837Z,28.35
2022-11-04T23:35:55.719Z,21.40
2022-11-04T23:38:24.338Z,23.13
2022-11-04T23:41:12.763Z,20.15
2022-11-04T23:43:40.844Z,27.33
2022-11-04T23:46:26.339Z,26.40
2022-11-04T23:49:11.671Z,15.88
2022-11-04T23:51:57.957Z,26.45
2022-11-04T23:54:43.585Z,17.58
2022-11-04T23:57:31.396Z,23.40
